Time;durP1;ratioP1;P1;durP2;ratioP2;P2;SDS_P1;SDS_P2;PMS_P1;PMS_P2;Temp;Humidity;BMP_temperature;BMP_pressure;BME280_temperature;BME280_humidity;BME280_pressure;Samples;Min_cycle;Max_cycle;Signal;HPM_P1;HPM_P2
2022/04/02 00:01:59;;;;;;;11.73;6.40;;;4.30;99.90;;;;;;6307676;22;20023;-75
2022/04/02 00:04:25;;;;;;;8.80;6.97;;;4.40;99.90;;;;;;6305271;22;19995;-75
2022/04/02 00:06:52;;;;;;;11.38;7.45;;;4.40;99.90;;;;;;6307379;22;20003;-74
2022/04/02 00:09:18;;;;;;;11.57;7.03;;;4.30;99.90;;;;;;6307569;22;20048;-74
2022/04/02 00:11:45;;;;;;;12.05;7.35;;;4.40;99.90;;;;;;6305950;22;20081;-74
2022/04/02 00:14:12;;;;;;;12.60;6.97;;;4.40;99.90;;;;;;6279919;22;20019;-75
2022/04/02 00:16:37;;;;;;;11.35;6.85;;;4.50;99.90;;;;;;6307387;22;20035;-75
2022/04/02 00:19:03;;;;;;;13.13;7.78;;;4.50;99.90;;;;;;6306762;22;20006;-75
2022/04/02 00:21:29;;;;;;;10.27;7.95;;;4.50;99.90;;;;;;6279662;22;20010;-75
2022/04/02 00:23:55;;;;;;;12.27;7.80;;;4.50;99.90;;;;;;6305986;22;20325;-75
2022/04/02 00:26:20;;;;;;;10.57;7.43;;;4.50;99.90;;;;;;6306973;22;19999;-75
2022/04/02 00:28:50;;;;;;;10.70;7.35;;;4.40;99.90;;;;;;6305108;22;20072;-75
2022/04/02 00:31:17;;;;;;;9.82;6.95;;;4.50;99.90;;;;;;6307322;22;20003;-75
2022/04/02 00:33:45;;;;;;;13.48;7.70;;;4.50;99.90;;;;;;6305514;22;20056;-75
2022/04/02 00:36:13;;;;;;;12.63;7.65;;;4.50;99.90;;;;;;6307118;22;20340;-75
2022/04/02 00:38:41;;;;;;;12.90;8.35;;;4.40;99.90;;;;;;6305765;22;20069;-75
2022/04/02 00:41:08;;;;;;;11.10;7.15;;;4.50;99.90;;;;;;6279695;22;20000;-74
2022/04/02 00:43:36;;;;;;;13.48;7.53;;;4.50;99.90;;;;;;6305876;22;20663;-74
2022/04/02 00:46:09;;;;;;;10.00;7.57;;;4.50;99.90;;;;;;6307011;22;20003;-74
2022/04/02 00:48:36;;;;;;;10.38;7.05;;;4.50;99.90;;;;;;6305527;22;20355;-74
2022/04/02 00:51:05;;;;;;;10.32;7.88;;;4.50;99.90;;;;;;6279543;22;20010;-74
2022/04/02 00:53:34;;;;;;;11.90;6.93;;;4.50;99.90;;;;;;6306182;22;20000;-74
2022/04/02 00:56:00;;;;;;;8.73;7.07;;;4.60;99.90;;;;;;6305632;22;20031;-74
2022/04/02 00:58:26;;;;;;;11.30;6.65;;;4.60;99.90;;;;;;6279893;22;20006;-74
2022/04/02 01:00:52;;;;;;;11.82;6.75;;;4.50;99.90;;;;;;6306981;22;20118;-74
2022/04/02 01:03:18;;;;;;;9.50;6.45;;;4.60;99.90;;;;;;6306863;22;20064;-74
2022/04/02 01:05:45;;;;;;;10.85;6.20;;;4.50;99.90;;;;;;6307134;22;20003;-74
2022/04/02 01:08:10;;;;;;;11.30;6.07;;;4.50;99.90;;;;;;6279803;22;20491;-74
2022/04/02 01:10:41;;;;;;;12.05;6.95;;;4.50;99.90;;;;;;6307680;22;20003;-74
2022/04/02 01:13:08;;;;;;;9.90;6.72;;;4.50;99.90;;;;;;6279581;22;20007;-76
2022/04/02 01:15:37;;;;;;;9.23;6.72;;;4.50;99.90;;;;;;6280657;22;20003;-76
2022/04/02 01:18:03;;;;;;;11.73;7.03;;;4.40;99.90;;;;;;6308195;22;20444;-76
2022/04/02 01:20:30;;;;;;;11.10;6.47;;;4.40;99.90;;;;;;6308948;22;20003;-76
2022/04/02 01:22:59;;;;;;;12.57;7.60;;;4.40;99.90;;;;;;6308592;22;20320;-77
2022/04/02 01:25:34;;;;;;;11.35;6.80;;;4.30;99.90;;;;;;6281501;22;20007;-77
2022/04/02 01:28:00;;;;;;;11.05;6.35;;;4.20;99.90;;;;;;6281791;22;20007;-76
2022/04/02 01:30:28;;;;;;;8.00;5.40;;;4.20;99.90;;;;;;6308843;22;20073;-76
2022/04/02 01:32:56;;;;;;;9.32;5.90;;;4.10;99.90;;;;;;6309612;22;20337;-76
2022/04/02 01:35:22;;;;;;;7.57;5.55;;;4.20;99.90;;;;;;6309142;22;20003;-76
2022/04/02 01:37:50;;;;;;;12.70;5.85;;;4.20;99.90;;;;;;6309304;22;20000;-77
2022/04/02 01:40:19;;;;;;;7.78;5.05;;;4.20;99.90;;;;;;6309752;22;20005;-77
2022/04/02 01:42:46;;;;;;;7.82;4.80;;;4.20;99.90;;;;;;6309037;22;20000;-78
2022/04/02 01:45:18;;;;;;;8.50;5.22;;;4.10;99.90;;;;;;6309067;22;20024;-77
2022/04/02 01:47:46;;;;;;;8.63;5.07;;;4.10;99.90;;;;;;6309519;22;20045;-77
2022/04/02 01:50:19;;;;;;;8.85;4.95;;;4.00;99.90;;;;;;6281706;22;20332;-77
2022/04/02 01:52:52;;;;;;;10.82;5.93;;;4.00;99.90;;;;;;6282156;22;20367;-77
2022/04/02 01:55:18;;;;;;;7.72;5.53;;;4.00;99.90;;;;;;6309086;22;20531;-77
2022/04/02 01:58:14;;;;;;;7.43;5.30;;;4.10;99.90;;;;;;6282059;22;20004;-77
2022/04/02 02:00:53;;;;;;;8.88;4.80;;;4.00;99.90;;;;;;6309853;22;20048;-77
2022/04/02 02:03:19;;;;;;;9.05;5.15;;;4.00;99.90;;;;;;6281957;22;20007;-77
2022/04/02 02:05:47;;;;;;;9.93;4.80;;;4.00;99.90;;;;;;6309306;22;20100;-77
2022/04/02 02:08:26;;;;;;;7.63;4.47;;;4.00;99.90;;;;;;6282038;22;20017;-77
2022/04/02 02:10:52;;;;;;;5.95;4.32;;;4.10;99.90;;;;;;6309337;22;20003;-77
2022/04/02 02:13:18;;;;;;;8.18;4.50;;;4.10;99.90;;;;;;6281054;22;20404;-77
2022/04/02 02:15:43;;;;;;;7.82;4.18;;;4.10;99.90;;;;;;6281654;22;20003;-78
2022/04/02 02:18:11;;;;;;;6.38;4.38;;;4.00;99.90;;;;;;6308957;22;20493;-77
2022/04/02 02:20:37;;;;;;;6.90;4.70;;;4.10;99.90;;;;;;6282079;22;20007;-77
2022/04/02 02:23:06;;;;;;;7.13;4.22;;;4.00;99.90;;;;;;6281689;22;20479;-77
2022/04/02 02:25:34;;;;;;;6.82;4.10;;;3.90;99.90;;;;;;6309259;22;20002;-77
2022/04/02 02:28:11;;;;;;;7.28;3.88;;;4.00;99.90;;;;;;6308832;22;19999;-77
2022/04/02 02:30:41;;;;;;;6.93;3.55;;;4.00;99.90;;;;;;6309442;22;20409;-77
2022/04/02 02:35:52;;;;;;;5.95;3.00;;;3.80;99.90;;;;;;6309190;22;20459;-77
2022/04/02 02:38:20;;;;;;;5.85;3.38;;;3.80;99.90;;;;;;6308602;22;20006;-78
2022/04/02 02:40:47;;;;;;;4.90;2.60;;;3.80;99.90;;;;;;6309227;22;20451;-78
2022/04/02 02:43:13;;;;;;;6.32;3.25;;;3.70;99.90;;;;;;6314651;22;20368;-78
2022/04/02 02:45:39;;;;;;;5.68;3.45;;;3.70;99.90;;;;;;6310788;22;20019;-77
2022/04/02 02:48:06;;;;;;;3.53;2.40;;;3.70;99.90;;;;;;6308825;22;20451;-78
2022/04/02 02:50:34;;;;;;;5.78;2.67;;;3.70;99.90;;;;;;6308706;22;19999;-77
2022/04/02 02:53:01;;;;;;;4.07;2.80;;;3.70;99.90;;;;;;6308418;22;19999;-77
2022/04/02 02:55:31;;;;;;;4.32;2.70;;;3.80;99.90;;;;;;6308547;22;20487;-77
2022/04/02 02:57:58;;;;;;;4.00;2.78;;;3.80;99.90;;;;;;6308286;22;20329;-77
2022/04/02 03:00:25;;;;;;;4.57;2.50;;;3.70;99.90;;;;;;6281322;22;20421;-77
2022/04/02 03:02:53;;;;;;;4.10;2.45;;;3.60;99.90;;;;;;6308766;22;20003;-78
2022/04/02 03:05:19;;;;;;;5.18;2.60;;;3.50;99.90;;;;;;6308447;22;20432;-77
2022/04/02 03:07:51;;;;;;;5.43;2.58;;;3.50;99.90;;;;;;6308313;22;20003;-77
2022/04/02 03:10:17;;;;;;;5.10;2.50;;;3.40;99.90;;;;;;6308287;22;20062;-77
2022/04/02 03:12:43;;;;;;;5.60;2.50;;;3.40;99.90;;;;;;6308438;22;20075;-77
2022/04/02 03:15:10;;;;;;;3.95;2.42;;;3.40;99.90;;;;;;6308144;22;20071;-77
2022/04/02 03:17:45;;;;;;;4.18;2.60;;;3.50;99.90;;;;;;6308275;22;20417;-77
2022/04/02 03:20:20;;;;;;;6.70;2.45;;;3.60;99.90;;;;;;6308564;22;20302;-78
2022/04/02 03:22:49;;;;;;;4.97;2.78;;;3.60;99.90;;;;;;6308222;22;19995;-77
2022/04/02 03:25:20;;;;;;;4.07;2.65;;;3.60;99.90;;;;;;6308442;22;19995;-77
2022/04/02 03:27:47;;;;;;;5.60;3.53;;;3.60;99.90;;;;;;6307655;22;20003;-77
2022/04/02 03:30:20;;;;;;;4.90;2.70;;;3.70;99.90;;;;;;6281257;22;20417;-77
2022/04/02 03:32:47;;;;;;;7.18;3.47;;;3.70;99.90;;;;;;6280395;22;20098;-77
2022/04/02 03:35:14;;;;;;;6.57;2.92;;;3.60;99.90;;;;;;6308267;22;20003;-77
2022/04/02 03:37:45;;;;;;;7.90;3.20;;;3.60;99.90;;;;;;6307405;22;20375;-77
2022/04/02 03:40:17;;;;;;;5.90;2.83;;;3.60;99.90;;;;;;6308315;22;19999;-77
2022/04/02 03:42:45;;;;;;;4.85;2.75;;;3.70;99.90;;;;;;6307295;22;20007;-77
2022/04/02 03:45:14;;;;;;;4.15;2.90;;;3.60;99.90;;;;;;6308025;22;19995;-77
2022/04/02 03:47:43;;;;;;;3.28;2.53;;;3.70;99.90;;;;;;6308216;22;20354;-77
2022/04/02 03:50:11;;;;;;;9.60;2.33;;;3.70;99.90;;;;;;6308313;22;19999;-77
2022/04/02 03:52:37;;;;;;;5.22;2.58;;;3.60;99.90;;;;;;6308472;22;20032;-77
2022/04/02 03:55:09;;;;;;;3.40;2.17;;;3.60;99.90;;;;;;6308213;22;20453;-77
2022/04/02 03:57:36;;;;;;;3.83;2.72;;;3.60;99.90;;;;;;6307171;22;20000;-77
2022/04/02 04:00:06;;;;;;;7.30;2.42;;;3.70;99.90;;;;;;6308242;22;20069;-77
2022/04/02 04:02:32;;;;;;;4.70;2.75;;;3.60;99.90;;;;;;6307845;22;20089;-77
2022/04/02 04:04:59;;;;;;;4.72;2.50;;;3.60;99.90;;;;;;6306867;22;20420;-77
2022/04/02 04:07:27;;;;;;;4.82;2.60;;;3.70;99.90;;;;;;6307523;22;20091;-77
2022/04/02 04:09:52;;;;;;;4.18;2.75;;;3.60;99.90;;;;;;6306666;22;19999;-77
2022/04/02 04:12:19;;;;;;;4.47;2.30;;;3.60;99.90;;;;;;6307920;22;19999;-77
2022/04/02 04:14:45;;;;;;;3.28;2.22;;;3.60;99.90;;;;;;6279397;22;20365;-77
2022/04/02 04:17:13;;;;;;;3.67;2.55;;;3.60;99.90;;;;;;6307661;22;20413;-77
2022/04/02 04:19:38;;;;;;;3.67;2.42;;;3.70;99.90;;;;;;6308059;22;20030;-77
2022/04/02 04:22:06;;;;;;;5.93;2.72;;;3.60;99.90;;;;;;6280732;22;20003;-77
2022/04/02 04:24:32;;;;;;;3.67;2.10;;;3.70;99.90;;;;;;6279457;22;20026;-77
2022/04/02 04:26:59;;;;;;;2.33;1.92;;;3.70;99.90;;;;;;6307667;22;20110;-77
2022/04/02 04:29:25;;;;;;;7.00;2.75;;;3.60;99.90;;;;;;6307691;22;20014;-77
2022/04/02 04:31:52;;;;;;;3.88;2.25;;;3.60;99.90;;;;;;6306933;22;20079;-76
2022/04/02 04:34:17;;;;;;;5.50;2.13;;;3.60;99.90;;;;;;6307797;22;20026;-77
2022/04/02 04:36:43;;;;;;;5.45;2.00;;;3.60;99.90;;;;;;6307407;22;20416;-76
2022/04/02 04:39:10;;;;;;;4.22;2.03;;;3.60;99.90;;;;;;6306792;22;20038;-76
2022/04/02 04:41:38;;;;;;;3.42;2.13;;;3.60;99.90;;;;;;6307617;22;19999;-76
2022/04/02 04:44:04;;;;;;;4.30;2.13;;;3.60;99.90;;;;;;6307611;22;20003;-77
2022/04/02 04:46:30;;;;;;;6.35;2.53;;;3.60;99.90;;;;;;6307776;22;20409;-76
2022/04/02 04:48:55;;;;;;;5.60;2.50;;;3.60;99.90;;;;;;6306579;22;20045;-77
2022/04/02 04:51:23;;;;;;;4.25;2.40;;;3.70;99.90;;;;;;6280096;22;20003;-77
2022/04/02 04:53:51;;;;;;;2.80;2.20;;;3.60;99.90;;;;;;6306634;22;20053;-76
2022/04/02 04:56:17;;;;;;;4.45;2.30;;;3.60;99.90;;;;;;6307349;22;20014;-76
2022/04/02 04:58:43;;;;;;;3.53;2.70;;;3.60;99.90;;;;;;6307808;22;20074;-76
2022/04/02 05:01:09;;;;;;;4.35;2.72;;;3.60;99.90;;;;;;6306632;22;20031;-76
2022/04/02 05:03:35;;;;;;;4.78;2.17;;;3.60;99.90;;;;;;6307546;22;20002;-76
2022/04/02 05:06:01;;;;;;;3.85;2.00;;;3.60;99.90;;;;;;6306627;22;20077;-76
2022/04/02 05:08:30;;;;;;;3.67;2.30;;;3.60;99.90;;;;;;6306334;22;20023;-76
2022/04/02 05:10:56;;;;;;;2.53;2.10;;;3.50;99.90;;;;;;6308154;22;20031;-75
2022/04/02 05:13:23;;;;;;;4.30;2.40;;;3.50;99.90;;;;;;6313361;22;19996;-76
2022/04/02 05:15:49;;;;;;;5.03;2.10;;;3.50;99.90;;;;;;6306191;22;20003;-76
2022/04/02 05:18:16;;;;;;;3.63;2.20;;;3.50;99.90;;;;;;6306846;22;20711;-76
2022/04/02 05:20:42;;;;;;;3.15;1.73;;;3.50;99.90;;;;;;6307674;22;20040;-76
2022/04/02 05:23:08;;;;;;;3.45;2.47;;;3.50;99.90;;;;;;6306330;22;19999;-76
2022/04/02 05:25:35;;;;;;;3.15;2.35;;;3.50;99.90;;;;;;6307102;22;20074;-76
2022/04/02 05:28:04;;;;;;;3.85;2.00;;;3.60;99.90;;;;;;6306959;22;20022;-76
2022/04/02 05:30:36;;;;;;;5.13;2.20;;;3.60;99.90;;;;;;6307253;22;20086;-76
2022/04/02 05:33:03;;;;;;;3.38;1.92;;;3.60;99.90;;;;;;6279556;22;20003;-76
2022/04/02 05:35:30;;;;;;;3.08;2.17;;;3.70;99.90;;;;;;6307226;22;20003;-76
2022/04/02 05:37:59;;;;;;;4.72;1.90;;;3.60;99.90;;;;;;6306799;22;20347;-76
2022/04/02 05:40:28;;;;;;;6.93;2.30;;;3.60;99.90;;;;;;6280282;22;20008;-76
2022/04/02 05:42:54;;;;;;;4.63;2.67;;;3.60;99.90;;;;;;6307075;22;20000;-77
2022/04/02 05:45:19;;;;;;;4.68;2.58;;;3.70;99.90;;;;;;6307313;22;20006;-77
2022/04/02 05:47:50;;;;;;;2.63;2.20;;;3.70;99.90;;;;;;6307391;22;20006;-77
2022/04/02 05:50:21;;;;;;;5.43;2.50;;;3.70;99.90;;;;;;6279799;22;20011;-77
2022/04/02 05:52:49;;;;;;;3.35;2.30;;;3.60;99.90;;;;;;6307221;22;20010;-77
2022/04/02 05:55:15;;;;;;;5.00;2.25;;;3.60;99.90;;;;;;6307188;22;20010;-77
2022/04/02 05:57:41;;;;;;;4.30;2.90;;;3.60;99.90;;;;;;6278171;22;20004;-77
2022/04/02 06:00:11;;;;;;;4.03;2.40;;;3.60;99.90;;;;;;6278176;22;20061;-77
2022/04/02 06:02:39;;;;;;;5.32;2.28;;;3.70;99.90;;;;;;6279993;22;20086;-77
2022/04/02 06:05:07;;;;;;;9.82;2.88;;;3.70;99.90;;;;;;6306989;22;20033;-77
2022/04/02 06:07:33;;;;;;;4.30;2.45;;;3.60;99.90;;;;;;6307858;22;20035;-77
2022/04/02 06:10:02;;;;;;;5.93;2.72;;;3.70;99.90;;;;;;6309569;22;20478;-77
2022/04/02 06:12:30;;;;;;;4.18;2.28;;;3.70;99.90;;;;;;6308581;22;20443;-77
2022/04/02 06:14:56;;;;;;;5.15;2.35;;;3.80;99.90;;;;;;6308890;22;20007;-77
2022/04/02 06:17:23;;;;;;;4.93;2.10;;;3.80;99.90;;;;;;6308849;22;20317;-77
2022/04/02 06:19:48;;;;;;;8.27;2.25;;;3.80;99.90;;;;;;6279368;22;20056;-77
2022/04/02 06:22:14;;;;;;;5.43;2.40;;;3.70;99.90;;;;;;6307445;22;20000;-77
2022/04/02 06:24:40;;;;;;;6.22;2.30;;;3.80;99.90;;;;;;6280545;22;20337;-77
2022/04/02 06:27:07;;;;;;;4.28;2.25;;;3.70;99.90;;;;;;6308188;22;20007;-77
2022/04/02 06:29:32;;;;;;;3.58;2.10;;;3.70;99.90;;;;;;6280785;22;20003;-77
2022/04/02 06:32:01;;;;;;;5.78;2.60;;;3.80;99.90;;;;;;6308079;22;20004;-78
2022/04/02 06:34:33;;;;;;;5.85;2.55;;;3.90;99.90;;;;;;6308843;22;20074;-77
2022/04/02 06:37:04;;;;;;;2.80;2.05;;;3.90;99.90;;;;;;6308051;22;20003;-77
2022/04/02 06:39:33;;;;;;;3.80;2.20;;;3.90;99.90;;;;;;6281495;22;20002;-77
2022/04/02 06:42:02;;;;;;;5.10;2.60;;;4.00;99.90;;;;;;6281005;22;20000;-77
2022/04/02 06:44:31;;;;;;;2.03;1.63;;;4.00;99.90;;;;;;6281383;22;19995;-77
2022/04/02 06:46:59;;;;;;;3.65;2.67;;;4.00;99.90;;;;;;6308120;22;20002;-77
2022/04/02 06:49:25;;;;;;;3.17;2.13;;;3.90;99.90;;;;;;6308357;22;20003;-77
2022/04/02 06:51:51;;;;;;;2.90;1.85;;;4.00;99.90;;;;;;6308842;22;20328;-76
2022/04/02 06:54:18;;;;;;;4.05;2.20;;;4.00;99.90;;;;;;6308646;22;19999;-76
2022/04/02 06:56:45;;;;;;;3.75;2.30;;;4.00;99.90;;;;;;6307546;22;20015;-76
2022/04/02 06:59:10;;;;;;;4.60;2.22;;;4.00;99.90;;;;;;6280774;22;20060;-76
2022/04/02 07:01:38;;;;;;;3.67;2.35;;;4.10;99.90;;;;;;6280993;22;19999;-75
2022/04/02 07:04:04;;;;;;;4.15;1.75;;;4.10;99.90;;;;;;6307987;22;20074;-75
2022/04/02 07:06:29;;;;;;;4.63;2.15;;;4.20;99.90;;;;;;6307468;22;20042;-76
2022/04/02 07:08:55;;;;;;;2.72;1.40;;;4.20;99.90;;;;;;6308422;22;20003;-75
2022/04/02 07:11:27;;;;;;;2.05;1.73;;;4.10;99.90;;;;;;6307367;22;20007;-75
2022/04/02 07:13:52;;;;;;;2.38;1.70;;;4.20;99.90;;;;;;6308058;22;20408;-75
2022/04/02 07:16:19;;;;;;;2.38;1.60;;;4.30;99.90;;;;;;6308312;22;20003;-75
2022/04/02 07:18:48;;;;;;;2.78;1.52;;;4.30;99.90;;;;;;6307462;22;19996;-77
2022/04/02 07:21:16;;;;;;;4.03;1.70;;;4.30;99.90;;;;;;6308364;22;19999;-77
2022/04/02 07:23:42;;;;;;;1.92;1.73;;;4.30;99.90;;;;;;6307529;22;20435;-78
2022/04/02 07:26:09;;;;;;;2.28;1.77;;;4.40;99.90;;;;;;6308667;22;19999;-77
2022/04/02 07:28:37;;;;;;;2.58;1.70;;;4.40;99.90;;;;;;6281084;22;19996;-77
2022/04/02 07:31:04;;;;;;;3.33;1.73;;;4.50;99.90;;;;;;6308165;22;20074;-77
2022/04/02 07:33:30;;;;;;;2.45;1.50;;;4.50;99.90;;;;;;6307650;22;20294;-78
2022/04/02 07:36:18;;;;;;;4.50;1.98;;;4.60;99.90;;;;;;6308428;22;20001;-77
2022/04/02 07:38:58;;;;;;;3.03;1.95;;;4.50;99.90;;;;;;6280891;22;20015;-77
2022/04/02 07:41:44;;;;;;;2.22;1.67;;;4.70;99.90;;;;;;6314143;22;20003;-78
2022/04/02 07:44:36;;;;;;;5.43;2.13;;;4.70;99.90;;;;;;6309784;22;20029;-78
2022/04/02 07:47:04;;;;;;;4.47;1.98;;;4.80;99.90;;;;;;6307166;22;20031;-78
2022/04/02 07:49:33;;;;;;;3.78;1.98;;;4.80;99.90;;;;;;6307981;22;20047;-78
2022/04/02 07:52:00;;;;;;;2.25;1.65;;;4.80;99.90;;;;;;6280812;22;20000;-78
2022/04/02 07:54:27;;;;;;;5.00;1.90;;;4.80;99.90;;;;;;6307570;22;20038;-78
2022/04/02 07:57:03;;;;;;;1.92;1.50;;;4.80;99.90;;;;;;6280705;22;20007;-78
2022/04/02 07:59:40;;;;;;;3.42;1.70;;;4.90;99.90;;;;;;6308193;22;20003;-78
2022/04/02 08:05:02;;;;;;;2.60;1.85;;;4.90;99.90;;;;;;6308268;22;20153;-78
2022/04/02 08:07:33;;;;;;;2.67;1.67;;;4.90;99.90;;;;;;6308056;22;20010;-78
2022/04/02 08:10:00;;;;;;;5.68;2.35;;;4.90;99.90;;;;;;6308266;22;19999;-78
2022/04/02 08:12:35;;;;;;;2.63;1.55;;;5.10;99.90;;;;;;6308278;22;20070;-79
2022/04/02 08:15:05;;;;;;;3.08;2.08;;;5.10;99.90;;;;;;6306938;22;20448;-79
2022/04/02 08:17:32;;;;;;;4.43;2.47;;;5.20;99.90;;;;;;6307409;22;19999;-78
2022/04/02 08:19:59;;;;;;;5.97;2.50;;;5.20;99.90;;;;;;6306586;22;20413;-78
2022/04/02 08:22:27;;;;;;;3.95;1.80;;;5.30;99.90;;;;;;6280375;22;20007;-79
2022/04/02 08:24:56;;;;;;;3.13;1.90;;;5.30;99.90;;;;;;6307555;22;20432;-79
2022/04/02 08:27:41;;;;;;;3.35;2.10;;;5.20;99.90;;;;;;6307719;22;19999;-78
2022/04/02 08:30:16;;;;;;;3.58;1.77;;;5.20;99.90;;;;;;6307619;22;20147;-78
2022/04/02 08:33:19;;;;;;;5.88;1.77;;;5.30;99.90;;;;;;6307532;22;20003;-78
2022/04/02 08:36:15;;;;;;;3.88;2.33;;;5.30;99.90;;;;;;6307638;22;20076;-79
2022/04/02 08:39:04;;;;;;;3.78;2.22;;;5.30;99.90;;;;;;6308059;22;20007;-79
2022/04/02 08:41:53;;;;;;;4.35;2.00;;;5.50;99.90;;;;;;6307359;22;19995;-80
2022/04/02 08:44:50;;;;;;;3.40;2.13;;;5.50;99.90;;;;;;6307826;22;19999;-79
2022/04/02 08:47:25;;;;;;;3.35;2.13;;;5.50;99.90;;;;;;6307257;22;20007;-79
2022/04/02 08:50:11;;;;;;;3.65;2.38;;;5.60;99.90;;;;;;6307740;22;20086;-79
2022/04/02 08:53:00;;;;;;;4.53;2.30;;;5.60;99.90;;;;;;6280150;22;20058;-79
2022/04/02 08:55:41;;;;;;;4.28;2.72;;;5.60;99.90;;;;;;6307439;22;20063;-78
2022/04/02 08:59:01;;;;;;;5.20;2.42;;;5.60;99.90;;;;;;6307570;22;20007;-79
2022/04/02 09:01:53;;;;;;;4.03;2.20;;;5.60;99.90;;;;;;6182138;23;20344;-78
2022/04/02 09:04:38;;;;;;;5.57;2.42;;;5.60;99.90;;;;;;6183110;23;20005;-79
2022/04/02 09:07:35;;;;;;;2.90;2.60;;;5.70;99.90;;;;;;6292690;22;20015;-79
2022/04/02 09:10:54;;;;;;;8.10;2.80;;;5.70;99.90;;;;;;6280190;22;20014;-79
2022/04/02 09:13:38;;;;;;;3.25;2.33;;;5.80;99.90;;;;;;6307608;22;20053;-79
2022/04/02 09:16:56;;;;;;;4.25;2.78;;;5.90;99.90;;;;;;6279781;22;20007;-79
2022/04/02 09:19:30;;;;;;;6.97;3.13;;;6.00;99.90;;;;;;6182900;23;20035;-79
2022/04/02 09:22:31;;;;;;;4.55;2.45;;;6.10;99.90;;;;;;6288276;22;20003;-78
2022/04/02 09:25:38;;;;;;;2.97;2.53;;;5.90;99.90;;;;;;6307270;22;20070;-78
2022/04/02 09:28:30;;;;;;;3.53;2.45;;;6.10;99.90;;;;;;6307424;22;20009;-79
2022/04/02 09:31:08;;;;;;;3.45;2.40;;;6.10;99.90;;;;;;6307456;22;20004;-78
2022/04/02 09:34:14;;;;;;;3.92;2.80;;;6.10;99.90;;;;;;6307550;22;20018;-80
2022/04/02 09:37:06;;;;;;;4.57;2.60;;;6.10;99.90;;;;;;6307757;22;20006;-81
2022/04/02 09:39:57;;;;;;;3.00;2.70;;;6.10;99.90;;;;;;6262611;22;20000;-80
2022/04/02 09:42:36;;;;;;;3.33;2.50;;;6.20;99.90;;;;;;6307952;22;20025;-80
2022/04/02 09:45:09;;;;;;;2.95;2.50;;;6.20;99.90;;;;;;6309228;22;20023;-79
2022/04/02 09:48:12;;;;;;;5.13;2.60;;;6.30;99.90;;;;;;6309530;22;20375;-80
2022/04/02 09:50:39;;;;;;;;;;;6.40;99.90;;;;;;6310075;22;20406;-78
2022/04/02 09:53:51;;;;;;;5.25;2.55;;;6.40;99.90;;;;;;6309593;22;19914;-79
2022/04/02 09:56:27;;;;;;;8.48;3.00;;;6.70;99.90;;;;;;6309045;22;20007;-80
2022/04/02 09:59:12;;;;;;;5.05;2.80;;;6.50;99.90;;;;;;6281996;22;20027;-80
2022/04/02 10:02:05;;;;;;;4.00;2.70;;;6.60;99.90;;;;;;6309042;22;19995;-80
2022/04/02 10:04:47;;;;;;;4.28;2.28;;;6.40;99.90;;;;;;6309210;22;20053;-79
2022/04/02 10:07:26;;;;;;;5.50;2.33;;;6.40;99.90;;;;;;6314215;22;20011;-79
2022/04/02 10:09:55;;;;;;;4.32;1.73;;;6.50;99.90;;;;;;6310420;22;19999;-80
2022/04/02 10:12:36;;;;;;;3.25;2.28;;;6.50;99.30;;;;;;6309200;22;20006;-79
2022/04/02 10:15:05;;;;;;;6.25;2.53;;;6.70;99.90;;;;;;6281818;22;20425;-80
2022/04/02 10:17:32;;;;;;;2.50;2.17;;;6.70;99.90;;;;;;6308722;22;20010;-79
2022/04/02 10:20:01;;;;;;;4.72;2.67;;;6.70;99.60;;;;;;6309128;22;20002;-79
2022/04/02 10:22:43;;;;;;;4.65;2.05;;;6.70;99.30;;;;;;6309071;22;20012;-80
2022/04/02 10:25:11;;;;;;;2.20;1.95;;;6.60;99.80;;;;;;6309184;22;20010;-79
2022/04/02 10:27:44;;;;;;;6.00;2.30;;;6.70;99.00;;;;;;6309056;22;19999;-80
2022/04/02 10:30:11;;;;;;;3.92;2.08;;;7.00;99.90;;;;;;6308236;22;20420;-80
2022/04/02 10:32:53;;;;;;;5.43;2.30;;;7.40;99.10;;;;;;6281537;22;20007;-80
2022/04/02 10:35:23;;;;;;;3.20;2.35;;;7.70;99.90;;;;;;6281596;22;20030;-79
2022/04/02 10:38:21;;;;;;;3.60;3.00;;;7.60;99.10;;;;;;6308124;22;20375;-80
2022/04/02 10:40:53;;;;;;;4.20;2.90;;;7.50;99.30;;;;;;6308928;22;20050;-80
2022/04/02 10:43:49;;;;;;;4.30;2.47;;;7.40;99.00;;;;;;6308257;22;19999;-79
2022/04/02 10:46:20;;;;;;;5.95;3.25;;;7.20;99.90;;;;;;6308890;22;20003;-80
2022/04/02 10:49:19;;;;;;;3.80;2.75;;;7.00;99.50;;;;;;6307998;22;20003;-80
2022/04/02 10:51:54;;;;;;;4.47;2.70;;;6.90;99.90;;;;;;6308912;22;20039;-80
2022/04/02 10:54:27;;;;;;;3.58;2.72;;;7.00;99.90;;;;;;6280770;22;20006;-79
2022/04/02 10:56:53;;;;;;;10.88;3.80;;;7.00;99.90;;;;;;6307568;22;20010;-76
2022/04/02 10:59:20;;;;;;;5.35;2.92;;;7.00;99.90;;;;;;6306645;22;19999;-76
2022/04/02 11:01:52;;;;;;;5.40;3.13;;;6.90;99.90;;;;;;6307925;22;20000;-76
2022/04/02 11:04:31;;;;;;;5.57;3.40;;;6.80;99.90;;;;;;6307416;22;20003;-77
2022/04/02 11:06:59;;;;;;;5.40;2.95;;;6.70;99.90;;;;;;6280572;22;20328;-76
2022/04/02 11:09:25;;;;;;;6.25;3.55;;;7.00;99.90;;;;;;6280731;22;20000;-76
2022/04/02 11:11:52;;;;;;;5.50;3.50;;;7.40;99.90;;;;;;6306685;22;20052;-76
2022/04/02 11:14:20;;;;;;;4.88;3.30;;;7.70;99.90;;;;;;6307976;22;19999;-77
2022/04/02 11:16:46;;;;;;;4.88;3.60;;;8.00;99.90;;;;;;6279423;22;20472;-77
2022/04/02 11:22:28;;;;;;;7.28;3.30;;;7.90;99.70;;;;;;6308331;22;20060;-76
2022/04/02 11:25:10;;;;;;;4.95;3.80;;;7.60;99.80;;;;;;6305252;22;20003;-76
2022/04/02 11:27:38;;;;;;;8.07;3.80;;;7.50;99.60;;;;;;6279161;22;20007;-76
2022/04/02 11:30:11;;;;;;;8.35;4.25;;;7.60;99.90;;;;;;6307426;22;20108;-75
2022/04/02 11:32:39;;;;;;;7.47;3.95;;;7.60;99.90;;;;;;6306775;22;20011;-75
2022/04/02 11:35:40;;;;;;;4.97;3.58;;;7.50;99.90;;;;;;6279751;22;20014;-76
2022/04/02 11:38:20;;;;;;;6.43;3.70;;;7.40;99.90;;;;;;6239475;22;20007;-75
2022/04/02 11:41:20;;;;;;;7.35;3.85;;;7.50;99.90;;;;;;6307295;22;20007;-76
2022/04/02 11:43:47;;;;;;;5.50;3.70;;;7.50;99.90;;;;;;6306458;22;20492;-76
2022/04/02 11:46:15;;;;;;;7.85;4.25;;;7.40;99.90;;;;;;6280102;22;20090;-76
2022/04/02 11:48:55;;;;;;;7.45;4.00;;;7.30;99.90;;;;;;6306843;22;20003;-76
2022/04/02 11:51:30;;;;;;;6.30;4.13;;;7.20;99.90;;;;;;6307422;22;20057;-75
2022/04/02 11:54:10;;;;;;;9.43;4.30;;;7.10;99.90;;;;;;6278934;22;20004;-76
2022/04/02 11:56:43;;;;;;;6.22;4.03;;;7.20;99.90;;;;;;6307290;22;20010;-76
2022/04/02 11:59:13;;;;;;;5.93;4.00;;;7.10;99.90;;;;;;6306825;22;20321;-76
2022/04/02 12:01:49;;;;;;;4.25;3.50;;;7.20;99.90;;;;;;6306874;22;20397;-76
2022/04/02 12:04:16;;;;;;;8.23;4.25;;;7.10;99.90;;;;;;6306640;22;20470;-76
2022/04/02 12:06:47;;;;;;;4.30;3.90;;;7.30;99.90;;;;;;6306429;22;20432;-76
2022/04/02 12:09:24;;;;;;;10.13;3.70;;;7.20;99.90;;;;;;6307385;22;20074;-76
2022/04/02 12:11:51;;;;;;;7.38;4.45;;;7.40;99.90;;;;;;6305306;22;20361;-76
2022/04/02 12:14:32;;;;;;;5.72;3.97;;;7.50;99.90;;;;;;6307215;22;20334;-76
2022/04/02 12:17:03;;;;;;;5.78;4.07;;;7.50;99.90;;;;;;6279723;22;20324;-76
2022/04/02 12:19:46;;;;;;;14.73;4.18;;;7.50;99.90;;;;;;6280066;22;20006;-75
2022/04/02 12:22:38;;;;;;;5.93;3.78;;;7.60;99.90;;;;;;6307289;22;20425;-75
2022/04/02 12:25:06;;;;;;;4.65;3.25;;;7.60;99.90;;;;;;6263656;22;19999;-75
2022/04/02 12:27:37;;;;;;;6.15;3.88;;;7.50;99.00;;;;;;6307060;22;19999;-75
2022/04/02 12:30:07;;;;;;;6.50;3.50;;;7.40;99.60;;;;;;6278162;22;20007;-76
2022/04/02 12:32:40;;;;;;;5.88;3.92;;;7.20;98.90;;;;;;6279348;22;20007;-76
2022/04/02 12:35:12;;;;;;;4.80;3.85;;;7.20;99.90;;;;;;6307345;22;20010;-75
2022/04/02 12:37:51;;;;;;;5.85;3.67;;;7.20;99.90;;;;;;6306846;22;20009;-75
2022/04/02 12:40:26;;;;;;;7.72;3.70;;;7.00;99.90;;;;;;6307187;22;20439;-76
2022/04/02 12:42:53;;;;;;;5.03;3.67;;;7.00;99.90;;;;;;6307114;22;19999;-76
2022/04/02 12:45:21;;;;;;;7.28;3.65;;;6.90;99.70;;;;;;6307328;22;20002;-75
2022/04/02 12:48:10;;;;;;;6.47;3.97;;;7.10;99.90;;;;;;6279797;22;20109;-75
2022/04/02 12:50:59;;;;;;;3.63;2.90;;;7.20;99.60;;;;;;6307217;22;20057;-76
2022/04/02 12:53:32;;;;;;;3.50;2.65;;;7.20;99.90;;;;;;6305496;22;20006;-76
2022/04/02 12:56:04;;;;;;;5.68;2.80;;;7.20;99.50;;;;;;6307025;22;20045;-76
2022/04/02 12:58:44;;;;;;;4.38;2.90;;;7.30;99.60;;;;;;6305909;22;20004;-76
2022/04/02 13:01:33;;;;;;;6.60;3.20;;;7.30;99.60;;;;;;6306299;22;20382;-75
2022/04/02 13:03:59;;;;;;;2.95;2.65;;;7.30;99.00;;;;;;6306188;22;20438;-76
2022/04/02 13:06:27;;;;;;;5.68;3.50;;;7.10;98.70;;;;;;6306235;22;20008;-75
2022/04/02 13:09:07;;;;;;;5.68;3.50;;;7.10;99.60;;;;;;6277274;22;20337;-76
2022/04/02 13:11:54;;;;;;;6.60;3.58;;;7.00;99.90;;;;;;6306154;22;20000;-76
2022/04/02 13:14:45;;;;;;;4.47;3.03;;;6.90;99.90;;;;;;6279558;22;20003;-75
2022/04/02 13:17:12;;;;;;;9.40;3.45;;;6.90;99.90;;;;;;6305201;22;19999;-75
2022/04/02 13:22:39;;;;;;;4.25;3.80;;;7.00;99.90;;;;;;6306444;22;20014;-76
2022/04/02 13:25:23;;;;;;;6.15;3.53;;;7.10;99.90;;;;;;6306913;22;20074;-75
2022/04/02 13:28:19;;;;;;;5.07;3.10;;;7.10;99.90;;;;;;6306861;22;20437;-76
2022/04/02 13:30:57;;;;;;;6.25;3.17;;;7.00;99.30;;;;;;6278443;22;20065;-75
2022/04/02 13:33:49;;;;;;;3.45;2.63;;;7.10;99.90;;;;;;6306586;22;20017;-76
2022/04/02 13:36:28;;;;;;;4.82;2.92;;;7.20;98.30;;;;;;6306727;22;20039;-75